Time;durP1;ratioP1;P1;durP2;ratioP2;P2;SDS_P1;SDS_P2;PMS_P1;PMS_P2;Temp;Humidity;BMP_temperature;BMP_pressure;BME280_temperature;BME280_humidity;BME280_pressure;Samples;Min_cycle;Max_cycle;Signal;HPM_P1;HPM_P2
2021/07/24 00:00:54;;;;;;;4.53;4.13;;;;;;;22.58;100.00;97097.94;4986392;28;20210;-66
2021/07/24 00:03:21;;;;;;;4.87;4.47;;;;;;;22.59;100.00;97091.13;4987225;28;20227;-67
2021/07/24 00:05:48;;;;;;;4.43;4.03;;;;;;;22.58;100.00;97082.56;4987111;28;20600;-64
2021/07/24 00:08:14;;;;;;;4.77;4.37;;;;;;;22.58;100.00;97072.31;4987509;28;20230;-65
2021/07/24 00:10:41;;;;;;;4.50;4.10;;;;;;;22.58;100.00;97074.00;4987622;28;20679;-65
2021/07/24 00:13:07;;;;;;;4.53;4.13;;;;;;;22.58;100.00;97072.31;4991129;28;20676;-65
2021/07/24 00:15:34;;;;;;;4.43;4.03;;;;;;;22.58;100.00;97077.44;4989183;28;20262;-67
2021/07/24 00:18:00;;;;;;;4.10;3.80;;;;;;;22.58;100.00;97079.13;4989807;28;20209;-66
2021/07/24 00:20:27;;;;;;;4.50;4.10;;;;;;;22.58;100.00;97080.00;4990893;28;20241;-65
2021/07/24 00:22:54;;;;;;;4.30;4.00;;;;;;;22.59;100.00;97078.31;4990806;28;20302;-65
2021/07/24 00:25:20;;;;;;;4.80;3.80;;;;;;;22.59;100.00;97075.75;4989085;28;20238;-66
2021/07/24 00:27:47;;;;;;;4.30;3.90;;;;;;;22.57;100.00;97078.28;5004093;28;20654;-66
2021/07/24 00:30:14;;;;;;;4.60;4.20;;;;;;;22.58;100.00;97081.69;4991012;28;20298;-64
2021/07/24 00:32:40;;;;;;;4.40;4.10;;;;;;;22.59;100.00;97078.31;4989316;28;20290;-65
2021/07/24 00:35:07;;;;;;;4.60;4.20;;;;;;;22.57;100.00;97078.28;4987418;28;20289;-66
2021/07/24 00:37:34;;;;;;;4.33;3.93;;;;;;;22.58;100.00;97077.44;4991035;28;20239;-66
2021/07/24 00:40:01;;;;;;;4.57;4.17;;;;;;;22.59;100.00;97078.31;4989999;28;20198;-66
2021/07/24 00:42:27;;;;;;;4.23;3.93;;;;;;;22.58;100.00;97072.31;4990096;28;20674;-66
2021/07/24 00:44:57;;;;;;;3.97;3.67;;;;;;;22.31;100.00;97024.81;5020123;22;20640;-68
2021/07/24 00:47:41;;;;;;;4.30;3.90;;;;;;;22.47;100.00;97047.34;4991526;28;20325;-71
2021/07/24 00:50:12;;;;;;;4.17;3.87;;;;;;;22.58;100.00;97058.63;4990161;28;20668;-68
2021/07/24 00:52:41;;;;;;;4.00;3.70;;;;;;;22.58;100.00;97056.09;4979306;28;20253;-71
2021/07/24 00:55:08;;;;;;;3.80;3.50;;;;;;;22.59;100.00;97047.59;5011771;28;20261;-68
2021/07/24 00:57:36;;;;;;;4.50;4.10;;;;;;;22.55;100.00;97038.09;5031575;28;20281;-69
2021/07/24 01:00:04;;;;;;;4.20;3.90;;;;;;;22.51;100.00;97031.22;4992073;28;20655;-72
2021/07/24 01:02:30;;;;;;;4.10;3.80;;;;;;;22.52;100.00;97031.25;4993876;28;20237;-68
2021/07/24 01:04:57;;;;;;;4.17;3.87;;;;;;;22.52;100.00;97025.25;5009776;28;20229;-70
2021/07/24 01:07:24;;;;;;;4.00;3.70;;;;;;;22.59;100.00;97038.19;4992540;28;20290;-66
2021/07/24 01:09:50;;;;;;;4.40;4.00;;;;;;;22.47;100.00;97009.75;5010976;28;20237;-68
2021/07/24 01:12:17;;;;;;;4.23;3.83;;;;;;;22.52;100.00;97015.00;5001009;28;20628;-69
2021/07/24 01:14:44;;;;;;;4.07;3.77;;;;;;;22.35;100.00;96983.09;4993196;28;20311;-66
2021/07/24 01:17:10;;;;;;;4.30;3.97;;;;;;;22.60;100.00;97011.75;4999028;28;20225;-70
2021/07/24 01:19:37;;;;;;;4.37;3.97;;;;;;;22.61;100.00;97010.91;5007872;28;20311;-70
2021/07/24 01:22:03;;;;;;;4.50;4.10;;;;;;;22.53;100.00;96993.69;5011722;28;20230;-67
2021/07/24 01:24:30;;;;;;;4.07;3.77;;;;;;;22.29;100.00;96948.00;5001147;28;20681;-74
2021/07/24 01:26:56;;;;;;;4.30;3.90;;;;;;;22.62;100.00;97011.78;4993404;28;20716;-70
2021/07/24 01:29:23;;;;;;;4.10;3.80;;;;;;;22.42;100.00;96974.69;5011361;28;20237;-69
2021/07/24 01:31:50;;;;;;;4.47;4.07;;;;;;;22.58;100.00;97015.97;5000829;28;20234;-68
2021/07/24 01:34:16;;;;;;;4.10;3.80;;;;;;;22.57;100.00;97013.38;5012320;28;20222;-73
2021/07/24 01:36:43;;;;;;;3.90;3.60;;;;;;;22.55;100.00;97010.81;5012691;28;20306;-69
2021/07/24 01:39:10;;;;;;;4.00;3.70;;;;;;;22.39;100.00;96987.44;5012770;28;20234;-67
2021/07/24 01:41:42;;;;;;;3.80;3.50;;;;;;;22.49;100.00;97004.66;4987175;28;20289;-68
2021/07/24 01:44:09;;;;;;;3.90;3.60;;;;;;;22.56;100.00;97015.06;4992258;28;20292;-69
2021/07/24 01:46:36;;;;;;;4.30;3.90;;;;;;;22.55;100.00;97017.63;5012514;28;20249;-69
2021/07/24 01:54:46;;;;;;;4.00;3.70;;;;;;;22.35;100.00;96986.50;5010686;28;20222;-70
2021/07/24 01:57:13;;;;;;;4.57;4.17;;;;;;;22.53;100.00;97014.19;4990048;28;20230;-70
2021/07/24 01:59:42;;;;;;;4.63;4.23;;;;;;;22.51;100.00;97021.84;5011122;28;20403;-68
2021/07/24 02:02:09;;;;;;;4.33;4.00;;;;;;;22.44;100.00;97017.41;4989204;28;20219;-71
2021/07/24 02:04:37;;;;;;;4.37;3.97;;;;;;;22.49;100.00;97020.91;4993198;28;20595;-71
2021/07/24 02:07:04;;;;;;;3.87;3.57;;;;;;;22.51;100.00;97019.28;5011099;28;20233;-65
2021/07/24 02:09:30;;;;;;;4.20;3.90;;;;;;;22.50;100.00;97022.66;5009772;28;20300;-68
2021/07/24 02:11:57;;;;;;;4.10;3.80;;;;;;;22.43;100.00;96996.88;4993489;28;20676;-71
2021/07/24 02:14:24;;;;;;;4.37;4.00;;;;;;;22.50;100.00;97007.28;4992910;28;20276;-69
2021/07/24 02:16:50;;;;;;;6.37;3.67;;;;;;;22.31;100.00;96977.06;5011388;28;20317;-72
2021/07/24 02:19:17;;;;;;;3.93;3.63;;;;;;;22.42;100.00;96996.03;5009540;28;20225;-73
2021/07/24 02:21:44;;;;;;;3.90;3.53;;;;;;;22.43;100.00;97004.56;5009522;28;20248;-72
2021/07/24 02:24:10;;;;;;;4.57;4.17;;;;;;;22.49;100.00;97012.34;5009285;28;20317;-71
2021/07/24 02:26:43;;;;;;;4.40;4.00;;;;;;;22.49;100.00;97007.22;5009322;28;20668;-69
2021/07/24 02:29:10;;;;;;;3.80;3.50;;;;;;;22.47;100.00;97002.09;5007644;28;20260;-69
2021/07/24 02:31:36;;;;;;;4.30;3.90;;;;;;;22.42;100.00;96995.16;5005780;28;20667;-70
2021/07/24 02:34:03;;;;;;;3.70;3.40;;;;;;;22.50;100.00;97006.41;5008238;28;20771;-68
2021/07/24 02:36:30;;;;;;;4.20;3.90;;;;;;;22.48;100.00;97028.56;5010408;28;20228;-69
2021/07/24 02:38:56;;;;;;;3.70;3.40;;;;;;;22.49;100.00;97030.28;5008693;28;20202;-74
2021/07/24 02:41:23;;;;;;;4.10;3.80;;;;;;;22.48;100.00;97034.56;5008616;28;20198;-71
2021/07/24 02:43:49;;;;;;;3.90;3.60;;;;;;;22.41;100.00;97027.56;5008449;28;20238;-71
2021/07/24 02:46:19;;;;;;;3.83;3.53;;;;;;;22.48;100.00;97041.38;5008817;28;20230;-68
2021/07/24 02:48:46;;;;;;;4.17;3.87;;;;;;;22.48;100.00;97042.25;5008289;28;20206;-69
2021/07/24 02:51:14;;;;;;;3.93;3.63;;;;;;;22.45;100.00;97038.75;4991966;28;20222;-71
2021/07/24 02:53:40;;;;;;;4.00;3.70;;;;;;;22.48;100.00;97043.94;5008349;28;20314;-70
2021/07/24 02:56:07;;;;;;;4.00;3.70;;;;;;;22.44;100.00;97037.03;4991964;28;20318;-71
2021/07/24 02:58:34;;;;;;;3.87;3.57;;;;;;;22.48;100.00;97056.72;5009027;28;20233;-71
2021/07/24 03:01:07;;;;;;;3.70;3.40;;;;;;;22.40;100.00;97046.34;5008216;28;20722;-71
2021/07/24 03:03:35;;;;;;;4.30;3.90;;;;;;;22.48;100.00;97072.09;4991665;28;20213;-72
2021/07/24 03:06:02;;;;;;;4.27;3.87;;;;;;;22.48;100.00;97067.84;5008112;28;20296;-68
2021/07/24 03:08:29;;;;;;;4.83;3.80;;;;;;;22.19;100.00;97016.91;5007961;28;20293;-73
2021/07/24 03:10:55;;;;;;;4.00;3.70;;;;;;;22.45;100.00;97060.09;5006606;28;20284;-70
2021/07/24 03:13:22;;;;;;;4.30;3.90;;;;;;;22.33;100.00;97035.97;5007328;28;20721;-70
2021/07/24 03:15:48;;;;;;;3.90;3.60;;;;;;;22.48;100.00;97064.41;5006316;28;20230;-73
2021/07/24 03:18:15;;;;;;;3.80;3.50;;;;;;;22.47;100.00;97057.56;4971084;28;20594;-74
2021/07/24 03:20:42;;;;;;;3.83;3.53;;;;;;;22.48;100.00;97061.84;5007092;28;20261;-70
2021/07/24 03:23:08;;;;;;;4.17;3.87;;;;;;;22.39;100.00;97052.31;5006968;28;20455;-71
2021/07/24 03:25:35;;;;;;;4.00;3.70;;;;;;;22.48;100.00;97065.28;5005923;28;20314;-70
2021/07/24 03:28:01;;;;;;;4.00;3.70;;;;;;;22.35;100.00;97047.13;5006270;28;20459;-70
2021/07/24 03:30:28;;;;;;;4.03;3.73;;;;;;;22.46;100.00;97066.94;5005916;28;20293;-71
2021/07/24 03:32:55;;;;;;;4.10;3.80;;;;;;;22.02;100.00;96985.06;5007612;28;20202;-71
2021/07/24 03:35:21;;;;;;;4.30;3.90;;;;;;;22.29;100.00;97029.06;5005312;28;20304;-70
2021/07/24 03:37:48;;;;;;;3.80;3.50;;;;;;;22.46;100.00;97072.06;5006119;28;20256;-74
2021/07/24 03:40:14;;;;;;;3.80;3.50;;;;;;;22.38;100.00;97055.69;5005260;28;20230;-70
2021/07/24 03:42:41;;;;;;;3.87;3.57;;;;;;;22.43;100.00;97058.34;5007316;28;20244;-72
2021/07/24 03:45:08;;;;;;;4.10;3.80;;;;;;;22.36;100.00;97033.47;5005112;28;20739;-71
2021/07/24 03:47:35;;;;;;;4.00;3.70;;;;;;;22.12;100.00;97000.63;4989629;28;20328;-72
2021/07/24 03:50:02;;;;;;;5.83;3.80;;;;;;;22.37;100.00;97055.66;5005222;28;20723;-71
2021/07/24 03:52:28;;;;;;;4.77;3.60;;;;;;;22.45;100.00;97070.34;4978898;28;20241;-69
2021/07/24 03:54:55;;;;;;;3.80;3.50;;;;;;;22.45;100.00;97078.03;5005958;28;20791;-73
2021/07/24 03:57:21;;;;;;;4.00;3.70;;;;;;;22.41;100.00;97071.09;5007221;28;20657;-69
2021/07/24 03:59:49;;;;;;;4.43;4.03;;;;;;;22.39;100.00;97065.13;5007254;28;20217;-66
2021/07/24 04:02:19;;;;;;;4.10;3.70;;;;;;;22.45;100.00;97067.78;5006740;28;20682;-73
2021/07/24 04:04:50;;;;;;;4.17;3.87;;;;;;;22.43;100.00;97066.00;5007035;28;20258;-70
2021/07/24 04:07:17;;;;;;;4.30;3.90;;;;;;;22.37;100.00;97061.66;5006433;28;20230;-71
2021/07/24 04:09:44;;;;;;;4.10;3.80;;;;;;;22.15;100.00;97018.59;4989419;28;20674;-72
2021/07/24 04:12:10;;;;;;;4.10;3.80;;;;;;;22.45;100.00;97069.47;5005490;28;20660;-71
2021/07/24 04:14:37;;;;;;;4.00;3.70;;;;;;;22.37;100.00;97053.09;5004111;28;20230;-72
2021/07/24 04:17:04;;;;;;;4.17;3.87;;;;;;;22.32;100.00;97039.38;5006665;28;20229;-70
2021/07/24 04:19:31;;;;;;;3.93;3.63;;;;;;;22.45;100.00;97055.00;4994990;28;20248;-73
2021/07/24 04:21:57;;;;;;;4.00;3.70;;;;;;;22.45;100.00;97060.09;5006857;28;20306;-73
2021/07/24 04:24:24;;;;;;;4.10;3.70;;;;;;;22.45;100.00;97049.00;5005147;28;20309;-70
2021/07/24 04:26:50;;;;;;;4.07;3.77;;;;;;;22.45;100.00;97037.06;4989321;28;20214;-70
2021/07/24 04:29:17;;;;;;;3.90;3.60;;;;;;;22.45;100.00;97033.63;5006470;28;20281;-72
2021/07/24 04:31:44;;;;;;;4.20;3.80;;;;;;;22.29;100.00;96986.41;5005459;28;20252;-67
2021/07/24 04:34:10;;;;;;;4.07;3.77;;;;;;;22.39;100.00;97003.66;4985994;28;20252;-72
2021/07/24 04:36:38;;;;;;;4.00;3.70;;;;;;;22.32;100.00;96994.13;5002294;28;20314;-70
2021/07/24 04:39:05;;;;;;;4.30;3.90;;;;;;;22.45;100.00;96995.22;5005410;28;20653;-70
2021/07/24 04:41:31;;;;;;;4.10;3.80;;;;;;;22.41;100.00;96989.19;5006437;28;20545;-70
2021/07/24 04:43:58;;;;;;;3.80;3.50;;;;;;;22.37;100.00;96973.72;5006481;28;20587;-72
2021/07/24 04:46:24;;;;;;;3.80;3.50;;;;;;;22.44;100.00;96981.53;4989126;28;20586;-73
2021/07/24 04:48:51;;;;;;;3.90;3.60;;;;;;;22.16;100.00;96938.41;5006439;28;20225;-71
2021/07/24 04:51:18;;;;;;;3.73;3.43;;;;;;;22.44;100.00;96991.78;5005235;28;20680;-70
2021/07/24 04:53:45;;;;;;;4.33;3.70;;;;;;;22.44;100.00;96994.34;5005472;28;20306;-73
2021/07/24 04:56:12;;;;;;;3.67;3.37;;;;;;;22.12;100.00;96941.75;5006494;28;20723;-71
2021/07/24 04:58:38;;;;;;;3.83;3.53;;;;;;;22.44;100.00;96994.34;4992213;28;20750;-71
2021/07/24 05:01:05;;;;;;;4.00;3.67;;;;;;;22.35;100.00;96989.06;4992822;28;20284;-70
2021/07/24 05:03:32;;;;;;;3.80;3.50;;;;;;;22.36;100.00;96988.25;5009764;28;20293;-73
2021/07/24 05:05:59;;;;;;;4.17;3.87;;;;;;;22.43;100.00;96996.88;4992264;28;20238;-70
2021/07/24 05:08:25;;;;;;;3.77;3.47;;;;;;;22.44;100.00;97004.59;5008352;28;20628;-73
2021/07/24 05:10:52;;;;;;;3.60;3.30;;;;;;;22.43;100.00;97010.56;5008436;28;20202;-70
2021/07/24 05:13:18;;;;;;;3.73;3.43;;;;;;;22.44;100.00;97006.31;5008359;28;20223;-73
2021/07/24 05:15:45;;;;;;;4.07;3.77;;;;;;;22.23;100.00;96976.06;4991975;28;20253;-71
2021/07/24 05:18:12;;;;;;;4.13;3.73;;;;;;;22.44;100.00;97019.13;5008384;28;20217;-70
2021/07/24 05:20:39;;;;;;;4.10;3.80;;;;;;;22.00;100.00;96945.78;5007822;28;20267;-68
2021/07/24 05:23:06;;;;;;;3.80;3.50;;;;;;;22.40;100.00;96996.84;4996247;28;20293;-70
2021/07/24 05:25:33;;;;;;;3.53;3.23;;;;;;;21.71;100.00;96886.38;5009003;28;20261;-73
2021/07/24 05:28:00;;;;;;;4.27;3.87;;;;;;;22.43;100.00;97005.44;5003659;28;20202;-70
2021/07/24 05:30:27;;;;;;;4.43;4.03;;;;;;;22.43;100.00;97012.25;5008951;28;20206;-70
2021/07/24 05:32:53;;;;;;;4.50;4.10;;;;;;;22.43;100.00;97007.13;5008310;28;20603;-73
2021/07/24 05:35:20;;;;;;;4.13;3.67;;;;;;;22.43;100.00;97004.56;5008781;28;20253;-70
2021/07/24 05:37:47;;;;;;;4.00;3.70;;;;;;;22.43;100.00;97004.56;5009658;28;20680;-70
2021/07/24 05:40:13;;;;;;;3.77;3.47;;;;;;;22.39;100.00;97001.13;4991535;28;20245;-71
2021/07/24 05:42:40;;;;;;;3.60;3.33;;;;;;;22.39;100.00;96997.69;5008339;28;20737;-69
2021/07/24 05:45:07;;;;;;;4.10;3.80;;;;;;;22.06;100.00;96941.63;4991520;28;20257;-72
2021/07/24 05:47:33;;;;;;;3.90;3.60;;;;;;;22.43;100.00;97008.00;5007911;28;20237;-74
2021/07/24 05:50:01;;;;;;;3.90;3.60;;;;;;;22.33;100.00;96988.19;4991035;28;20769;-70
2021/07/24 05:52:27;;;;;;;4.10;3.80;;;;;;;22.43;100.00;97008.00;5007550;28;20238;-71
2021/07/24 05:54:54;;;;;;;3.80;3.50;;;;;;;22.44;100.00;97001.19;5007411;28;20230;-73
2021/07/24 05:57:20;;;;;;;3.90;3.60;;;;;;;22.15;100.00;96957.16;5007172;28;20257;-72
2021/07/24 05:59:48;;;;;;;3.93;3.63;;;;;;;22.35;100.00;96993.34;5007348;28;20210;-69
2021/07/24 06:02:15;;;;;;;4.03;3.73;;;;;;;22.34;100.00;96989.03;5009065;28;20293;-73
2021/07/24 06:04:43;;;;;;;4.33;3.83;;;;;;;22.36;100.00;96989.94;4988653;28;20580;-70
2021/07/24 06:07:09;;;;;;;3.80;3.50;;;;;;;22.05;100.00;96933.94;4991253;28;20237;-67
2021/07/24 06:09:36;;;;;;;4.13;3.83;;;;;;;22.34;100.00;96995.03;4990880;28;20210;-73
2021/07/24 06:12:03;;;;;;;4.43;3.50;;;;;;;22.43;100.00;97010.56;5009258;28;20234;-70
2021/07/24 06:14:31;;;;;;;4.10;3.80;;;;;;;22.43;100.00;97012.25;5008020;28;20256;-69
2021/07/24 06:16:57;;;;;;;3.83;3.53;;;;;;;22.44;100.00;97019.13;5008595;28;20218;-73
2021/07/24 06:19:24;;;;;;;3.63;3.33;;;;;;;22.43;100.00;97014.81;5006540;28;20202;-71
2021/07/24 06:21:50;;;;;;;4.27;3.80;;;;;;;22.41;100.00;97021.63;5008577;28;20238;-71
2021/07/24 06:24:17;;;;;;;4.33;3.93;;;;;;;22.40;100.00;97015.63;5008358;28;20309;-72
2021/07/24 06:26:44;;;;;;;3.60;3.30;;;;;;;22.40;100.00;97007.06;5006659;28;20213;-72
2021/07/24 06:29:11;;;;;;;3.93;3.60;;;;;;;22.17;100.00;96969.97;5006540;28;20731;-74
2021/07/24 06:31:40;;;;;;;3.80;3.50;;;;;;;22.43;100.00;97014.81;5000448;28;20217;-72
2021/07/24 06:34:07;;;;;;;3.53;3.23;;;;;;;22.39;100.00;97018.16;4991230;28;20308;-71
2021/07/24 06:36:33;;;;;;;3.90;3.60;;;;;;;22.43;100.00;97037.84;5007740;28;20608;-72
2021/07/24 06:39:00;;;;;;;3.90;3.60;;;;;;;22.42;100.00;97038.69;5001834;28;20208;-71
2021/07/24 06:41:30;;;;;;;4.13;3.83;;;;;;;22.43;100.00;97042.97;5007902;28;20636;-72
2021/07/24 06:46:36;;;;;;;3.80;3.50;;;;;;;22.44;100.00;97055.81;4985297;28;20207;-66
2021/07/24 06:49:03;;;;;;;3.93;3.63;;;;;;;22.43;100.00;97050.66;4987410;28;20203;-67
2021/07/24 06:51:30;;;;;;;3.63;3.33;;;;;;;22.42;100.00;97060.06;4988686;28;20229;-66
2021/07/24 06:53:56;;;;;;;3.90;3.60;;;;;;;22.42;100.00;97070.28;4988128;28;20744;-66
2021/07/24 06:56:23;;;;;;;3.80;3.50;;;;;;;22.43;100.00;97082.25;4988732;28;20700;-68
2021/07/24 06:58:50;;;;;;;3.80;3.50;;;;;;;22.43;100.00;97086.50;4987512;28;20716;-65
2021/07/24 07:01:17;;;;;;;4.03;3.70;;;;;;;22.43;100.00;97089.94;4988576;28;20257;-66
2021/07/24 07:03:44;;;;;;;3.63;3.33;;;;;;;22.43;100.00;97089.06;4988171;28;20294;-67
2021/07/24 07:06:13;;;;;;;3.87;3.57;;;;;;;22.43;100.00;97097.63;4988154;28;20300;-65
2021/07/24 07:08:40;;;;;;;3.67;3.33;;;;;;;22.43;100.00;97089.06;4984973;28;20302;-68
2021/07/24 07:11:06;;;;;;;3.73;3.43;;;;;;;22.43;100.00;97095.06;4984116;28;20241;-67
2021/07/24 07:13:33;;;;;;;3.80;3.50;;;;;;;22.43;100.00;97102.72;4987811;28;20756;-66
2021/07/24 07:16:06;;;;;;;3.37;3.17;;;;;;;22.44;100.00;97095.94;4986195;28;20227;-66
2021/07/24 07:18:34;;;;;;;3.73;3.43;;;;;;;22.44;100.00;97085.69;4987829;28;20206;-65
2021/07/24 07:21:00;;;;;;;3.70;3.40;;;;;;;22.44;100.00;97078.00;4985791;28;20211;-67
2021/07/24 07:23:27;;;;;;;3.67;3.37;;;;;;;22.44;100.00;97067.75;4987834;28;20285;-66
2021/07/24 07:25:54;;;;;;;3.93;3.57;;;;;;;22.42;100.00;97075.41;4987294;28;20341;-66
2021/07/24 07:28:20;;;;;;;3.43;3.13;;;;;;;22.37;100.00;97063.34;4987758;28;20235;-66
2021/07/24 07:30:47;;;;;;;3.70;3.40;;;;;;;22.37;100.00;97074.47;4986106;28;20306;-67
2021/07/24 07:33:15;;;;;;;3.37;3.10;;;;;;;22.43;100.00;97101.88;4987502;28;20736;-66
2021/07/24 07:35:42;;;;;;;5.00;3.40;;;;;;;22.43;100.00;97114.66;4987712;28;20227;-67
2021/07/24 07:38:08;;;;;;;3.70;3.40;;;;;;;22.44;100.00;97126.66;4987653;28;20227;-67
2021/07/24 07:40:38;;;;;;;3.50;3.20;;;;;;;22.43;100.00;97130.03;4987637;28;20238;-65
2021/07/24 07:43:06;;;;;;;4.20;3.80;;;;;;;22.42;100.00;97121.50;4987874;28;20660;-66
2021/07/24 07:45:32;;;;;;;4.00;3.70;;;;;;;22.42;100.00;97121.50;4986275;28;20321;-68
2021/07/24 07:47:59;;;;;;;3.83;3.27;;;;;;;22.42;100.00;97113.81;4982522;28;20234;-66
2021/07/24 07:50:26;;;;;;;3.53;3.23;;;;;;;22.42;100.00;97118.94;4987420;28;20234;-67
2021/07/24 07:52:52;;;;;;;3.63;3.33;;;;;;;21.29;100.00;96917.06;4987588;28;20241;-66
2021/07/24 07:55:19;;;;;;;3.60;3.30;;;;;;;22.42;100.00;97103.59;4987505;28;20620;-65
2021/07/24 07:57:45;;;;;;;3.63;3.33;;;;;;;22.43;100.00;97115.53;4987509;28;20258;-67
2021/07/24 08:00:12;;;;;;;3.53;3.23;;;;;;;22.43;100.00;97104.44;4986783;28;20386;-66
2021/07/24 08:02:39;;;;;;;5.60;3.23;;;;;;;22.42;100.00;97110.38;4987278;28;20249;-66
2021/07/24 08:05:06;;;;;;;3.53;3.23;;;;;;;22.43;100.00;97106.97;4987448;28;20225;-66
2021/07/24 08:07:33;;;;;;;3.73;3.40;;;;;;;22.38;100.00;97095.81;4987362;28;20646;-66
2021/07/24 08:09:59;;;;;;;3.10;2.90;;;;;;;22.43;100.00;97097.63;4985565;28;20260;-68
2021/07/24 08:12:26;;;;;;;5.47;3.40;;;;;;;22.43;100.00;97094.19;4987409;28;20281;-66
2021/07/24 08:14:55;;;;;;;3.70;3.40;;;;;;;22.43;100.00;97091.63;4986999;28;20778;-66
2021/07/24 08:17:22;;;;;;;3.57;3.27;;;;;;;22.42;100.00;97093.34;4987311;28;20223;-67
2021/07/24 08:19:49;;;;;;;3.30;3.10;;;;;;;22.42;100.00;97090.78;4987321;28;20203;-66
2021/07/24 08:22:16;;;;;;;3.70;3.40;;;;;;;22.41;100.00;97078.78;4985170;28;20731;-66
2021/07/24 08:24:42;;;;;;;3.43;3.13;;;;;;;22.43;100.00;97092.50;4984965;28;20230;-66
2021/07/24 08:27:09;;;;;;;3.33;3.13;;;;;;;22.42;100.00;97095.91;4986686;28;20286;-66
2021/07/24 08:29:36;;;;;;;3.67;3.37;;;;;;;22.42;100.00;97084.78;4986831;28;20293;-66
2021/07/24 08:32:02;;;;;;;3.70;3.40;;;;;;;22.43;100.00;97083.94;4988315;28;20295;-66
2021/07/24 08:34:29;;;;;;;3.73;3.43;;;;;;;22.42;100.00;97083.09;4990827;28;20260;-66
2021/07/24 08:36:56;;;;;;;3.20;3.00;;;;;;;22.43;100.00;97089.06;4990581;28;20223;-66
2021/07/24 08:39:22;;;;;;;3.13;2.93;;;;;;;22.42;100.00;97087.34;4990741;28;20203;-66
2021/07/24 08:41:49;;;;;;;3.53;3.23;;;;;;;22.42;100.00;97083.09;4990707;28;20241;-65
2021/07/24 08:44:15;;;;;;;3.87;3.57;;;;;;;22.43;100.00;97086.50;4990655;28;20310;-66
2021/07/24 08:46:42;;;;;;;3.47;3.17;;;;;;;22.42;100.00;97087.34;4990747;28;20346;-66
2021/07/24 08:49:09;;;;;;;3.57;3.10;;;;;;;22.42;100.00;97089.91;4988990;28;20206;-66
2021/07/24 08:51:37;;;;;;;3.50;3.20;;;;;;;22.42;100.00;97098.47;4989333;28;20238;-66
2021/07/24 08:54:04;;;;;;;3.70;3.40;;;;;;;22.42;100.00;97095.03;4990030;28;20206;-66
2021/07/24 08:56:34;;;;;;;3.13;2.93;;;;;;;22.38;100.00;97103.50;4990523;28;20234;-66
2021/07/24 08:59:02;;;;;;;3.30;3.10;;;;;;;22.36;100.00;97103.47;4976126;28;20212;-64
2021/07/24 09:01:29;;;;;;;3.80;3.50;;;;;;;22.42;100.00;97121.50;4988229;28;20534;-63
2021/07/24 09:03:56;;;;;;;3.73;3.43;;;;;;;22.42;100.00;97118.06;4990353;28;20216;-66
2021/07/24 09:06:22;;;;;;;3.47;3.20;;;;;;;22.42;100.00;97118.06;4988813;28;20305;-66
2021/07/24 09:08:50;;;;;;;5.70;3.20;;;;;;;22.36;100.00;97100.91;4989627;28;20235;-67
2021/07/24 09:11:18;;;;;;;3.50;3.20;;;;;;;22.42;100.00;97106.13;4989055;28;20290;-66
2021/07/24 09:13:44;;;;;;;3.70;3.40;;;;;;;22.41;100.00;97101.84;4990740;28;20213;-66
2021/07/24 09:16:11;;;;;;;3.60;3.17;;;;;;;22.41;100.00;97099.28;4989943;28;20231;-66
2021/07/24 09:18:39;;;;;;;3.10;2.90;;;;;;;22.42;100.00;97097.59;4988494;28;20243;-67
2021/07/24 09:21:05;;;;;;;3.20;3.00;;;;;;;22.42;100.00;97089.91;4988387;28;20659;-66
2021/07/24 09:23:35;;;;;;;3.30;3.10;;;;;;;22.42;100.00;97082.22;4990489;28;20259;-66
2021/07/24 09:26:04;;;;;;;3.63;3.33;;;;;;;22.30;100.00;97059.81;4984488;28;20308;-66
2021/07/24 09:28:31;;;;;;;3.70;3.40;;;;;;;22.41;100.00;97073.66;4988053;28;20230;-66
2021/07/24 09:30:57;;;;;;;3.33;3.13;;;;;;;22.42;100.00;97083.09;4988521;28;20238;-66
2021/07/24 09:33:24;;;;;;;3.20;3.00;;;;;;;22.42;100.00;97072.84;4987888;28;20282;-64
2021/07/24 09:36:00;;;;;;;3.30;3.10;;;;;;;22.42;100.00;97069.41;4985233;28;20227;-66
2021/07/24 09:38:34;;;;;;;3.67;3.37;;;;;;;22.42;100.00;97062.63;4989271;28;20784;-66
2021/07/24 09:41:02;;;;;;;3.70;3.40;;;;;;;22.41;100.00;97055.75;4985564;28;20203;-66
2021/07/24 09:43:36;;;;;;;3.33;3.10;;;;;;;22.42;100.00;97060.06;4987540;28;20286;-63
2021/07/24 09:46:19;;;;;;;3.60;3.30;;;;;;;22.42;100.00;97056.63;4985163;28;20663;-66
2021/07/24 09:48:47;;;;;;;3.40;3.10;;;;;;;22.40;100.00;97046.34;4987932;28;20671;-67
2021/07/24 09:51:14;;;;;;;3.37;3.10;;;;;;;22.42;100.00;97046.38;4989722;28;20241;-66
2021/07/24 09:53:41;;;;;;;3.00;2.80;;;;;;;22.41;100.00;97042.09;4988092;28;20472;-66
2021/07/24 09:56:14;;;;;;;3.57;3.27;;;;;;;22.40;100.00;97036.09;4989428;28;20535;-66
2021/07/24 09:58:42;;;;;;;3.53;3.23;;;;;;;22.41;100.00;97032.69;4986811;28;20227;-66
2021/07/24 10:01:10;;;;;;;3.37;3.07;;;;;;;22.41;100.00;97025.03;4988236;28;20230;-66
2021/07/24 10:03:39;;;;;;;3.00;2.80;;;;;;;22.41;100.00;97025.03;4986570;28;20249;-66
2021/07/24 10:06:09;;;;;;;3.13;2.93;;;;;;;22.42;100.00;97020.78;4989008;28;20230;-66
2021/07/24 10:08:38;;;;;;;3.33;3.03;;;;;;;22.42;100.00;97025.91;4985845;28;20249;-66
2021/07/24 10:11:04;;;;;;;3.13;2.93;;;;;;;22.41;100.00;97027.56;4987747;28;20619;-65
2021/07/24 10:13:31;;;;;;;3.13;2.93;;;;;;;22.41;100.00;97019.91;4989221;28;20203;-66
2021/07/24 10:15:57;;;;;;;3.50;3.20;;;;;;;22.41;100.00;97019.91;4988767;28;20262;-67
2021/07/24 10:18:25;;;;;;;3.97;3.17;;;;;;;22.43;100.00;97019.94;4970109;28;20223;-66
2021/07/24 10:20:52;;;;;;;3.50;3.20;;;;;;;22.41;100.00;97012.22;4978077;28;20298;-66
2021/07/24 10:23:23;;;;;;;3.67;3.37;;;;;;;22.43;100.00;97019.94;4988706;28;20699;-64
2021/07/24 10:25:59;;;;;;;3.07;2.87;;;;;;;22.42;100.00;97008.84;4988964;28;20720;-68
2021/07/24 10:28:57;;;;;;;3.30;3.10;;;;;;;22.42;100.00;97008.84;4988502;28;20611;-66
2021/07/24 10:31:26;;;;;;;2.93;2.73;;;;;;;22.43;100.00;97004.56;4985825;28;20261;-66
2021/07/24 10:33:54;;;;;;;3.50;3.20;;;;;;;22.42;100.00;97002.84;4971516;28;20293;-66
2021/07/24 10:36:21;;;;;;;3.37;3.07;;;;;;;22.42;100.00;96992.59;4971430;28;20463;-67
2021/07/24 10:38:57;;;;;;;3.60;3.30;;;;;;;22.41;100.00;96996.84;4978060;28;20711;-66
2021/07/24 10:41:23;;;;;;;3.87;3.57;;;;;;;22.41;100.00;96999.41;4988872;28;20720;-66
2021/07/24 10:44:18;;;;;;;3.13;2.93;;;;;;;22.41;100.00;96996.84;4988318;28;20242;-66
2021/07/24 10:46:45;;;;;;;3.60;3.30;;;;;;;22.41;100.00;97001.13;4987088;28;20799;-66
2021/07/24 10:49:20;;;;;;;3.30;3.10;;;;;;;22.42;100.00;96995.16;4988395;28;20211;-66
2021/07/24 10:51:57;;;;;;;3.13;2.93;;;;;;;22.41;100.00;96991.72;4988677;28;20210;-66
2021/07/24 10:54:24;;;;;;;3.50;3.20;;;;;;;22.41;100.00;96978.94;4988100;28;20684;-66
2021/07/24 10:56:50;;;;;;;2.97;2.77;;;;;;;22.42;100.00;96969.56;4988397;28;20285;-66
2021/07/24 10:59:29;;;;;;;3.00;2.80;;;;;;;22.42;100.00;96946.53;4988155;28;20680;-66
2021/07/24 11:02:00;;;;;;;3.33;3.10;;;;;;;22.42;100.00;96941.41;4988254;28;20237;-66
2021/07/24 11:04:36;;;;;;;3.50;3.20;;;;;;;22.41;100.00;96927.72;4988573;28;20234;-66
2021/07/24 11:07:26;;;;;;;3.07;2.87;;;;;;;22.41;100.00;96949.94;4983563;28;20285;-68
2021/07/24 11:09:53;;;;;;;3.57;3.03;;;;;;;22.41;100.00;96971.25;4987539;28;20203;-66
2021/07/24 11:12:39;;;;;;;3.50;3.20;;;;;;;22.41;100.00;96975.53;4987969;28;20304;-66
2021/07/24 11:15:19;;;;;;;3.00;2.80;;;;;;;22.42;100.00;96969.56;4984555;28;20257;-67
2021/07/24 11:18:23;;;;;;;3.03;2.83;;;;;;;22.41;100.00;96958.44;4986736;28;20313;-66
2021/07/24 11:20:50;;;;;;;3.00;2.80;;;;;;;22.40;100.00;96969.53;4986642;28;20217;-67
2021/07/24 11:23:17;;;;;;;3.43;3.13;;;;;;;22.35;100.00;96955.78;4987770;28;20238;-66
2021/07/24 11:25:46;;;;;;;3.10;2.90;;;;;;;22.41;100.00;96975.53;4986566;28;20309;-67
2021/07/24 11:28:20;;;;;;;3.20;3.00;;;;;;;22.40;100.00;96977.22;4987843;28;20635;-66
2021/07/24 11:30:56;;;;;;;3.30;3.00;;;;;;;22.41;100.00;96975.53;4988069;28;20646;-66
2021/07/24 11:33:24;;;;;;;3.20;3.00;;;;;;;22.27;100.00;96952.25;4987510;28;20765;-68
2021/07/24 11:35:51;;;;;;;3.43;3.13;;;;;;;22.40;100.00;96981.47;4971127;28;20233;-66